Time;durP1;ratioP1;P1;durP2;ratioP2;P2;SDS_P1;SDS_P2;PMS_P1;PMS_P2;Temp;Humidity;BMP_temperature;BMP_pressure;BME280_temperature;BME280_humidity;BME280_pressure;Samples;Min_cycle;Max_cycle;Signal;HPM_P1;HPM_P2
2022/09/07 00:00:33;;;;;;;3.70;3.30;;;;;;;19.54;94.48;156386.06;5052866;28;20461;-76
2022/09/07 00:03:00;;;;;;;3.80;3.50;;;;;;;19.56;94.39;156391.31;5053763;28;20470;-76
2022/09/07 00:05:27;;;;;;;4.30;3.33;;;;;;;19.56;94.80;156390.00;5052532;28;20439;-76
2022/09/07 00:07:54;;;;;;;3.70;3.00;;;;;;;19.57;93.71;156392.56;5052448;28;20485;-76
2022/09/07 00:10:21;;;;;;;4.00;2.60;;;;;;;19.53;90.75;156382.16;5069145;28;20442;-76
2022/09/07 00:12:48;;;;;;;3.37;3.03;;;;;;;19.51;91.43;156376.97;5068889;28;21016;-76
2022/09/07 00:15:17;;;;;;;3.53;3.10;;;;;;;19.51;92.41;156378.28;5069051;28;21047;-76
2022/09/07 00:17:44;;;;;;;3.47;3.13;;;;;;;19.54;90.72;156384.78;5068927;28;20995;-77
2022/09/07 00:20:12;;;;;;;2.67;2.47;;;;;;;19.52;91.83;156379.53;5068944;28;20942;-76
2022/09/07 00:22:39;;;;;;;3.40;2.80;;;;;;;19.48;91.75;156369.13;5068663;28;20450;-76
2022/09/07 00:25:06;;;;;;;4.50;3.23;;;;;;;19.46;90.49;156365.19;5068904;28;20450;-76
2022/09/07 00:27:33;;;;;;;3.20;2.90;;;;;;;19.46;93.94;156363.94;5068761;28;20509;-76
2022/09/07 00:30:00;;;;;;;3.87;2.43;;;;;;;19.48;93.97;156369.13;5053469;28;20439;-76
2022/09/07 00:32:28;;;;;;;3.10;2.77;;;;;;;19.48;91.30;156370.44;5053060;28;20485;-77
2022/09/07 00:34:54;;;;;;;5.20;2.60;;;;;;;19.46;90.35;156363.94;5052005;28;20454;-76
2022/09/07 00:37:21;;;;;;;5.50;2.70;;;;;;;19.49;90.56;156371.72;5052057;28;20475;-76
2022/09/07 00:39:49;;;;;;;3.37;2.60;;;;;;;19.50;90.11;156374.34;5068886;28;20455;-76
2022/09/07 00:42:16;;;;;;;3.40;2.70;;;;;;;19.52;92.87;156379.53;5068197;28;20450;-74
2022/09/07 00:45:06;;;;;;;4.10;2.67;;;;;;;19.48;90.19;156370.44;5068545;28;20447;-77
2022/09/07 00:47:38;;;;;;;4.70;2.70;;;;;;;19.50;92.18;156374.34;5052921;28;20455;-77
2022/09/07 00:50:08;;;;;;;3.77;2.63;;;;;;;19.49;91.66;156373.03;5051615;28;20995;-76
2022/09/07 00:52:36;;;;;;;3.37;2.03;;;;;;;19.48;90.64;156369.13;5038266;28;20454;-76
2022/09/07 00:55:06;;;;;;;5.27;3.07;;;;;;;19.50;91.18;156375.66;5066375;28;20445;-77
2022/09/07 00:57:34;;;;;;;3.10;2.27;;;;;;;19.51;89.41;156376.97;5051752;28;20842;-76
2022/09/07 01:00:01;;;;;;;3.63;2.70;;;;;;;19.49;91.23;156371.72;5052920;28;20798;-76
2022/09/07 01:02:28;;;;;;;3.80;2.27;;;;;;;19.50;91.34;156374.34;5067689;28;20446;-76
2022/09/07 01:05:02;;;;;;;2.87;2.17;;;;;;;19.48;93.40;156370.44;5052807;28;20450;-76
2022/09/07 01:07:28;;;;;;;3.93;2.23;;;;;;;19.50;91.22;156374.34;5067990;28;20434;-76
2022/09/07 01:09:55;;;;;;;3.10;2.67;;;;;;;19.51;91.35;156378.28;5052659;28;20778;-74
2022/09/07 01:12:22;;;;;;;5.60;2.90;;;;;;;19.52;89.97;156379.53;5052190;28;20930;-75
2022/09/07 01:14:50;;;;;;;5.90;2.60;;;;;;;19.51;91.25;156378.28;5068206;28;20438;-75
2022/09/07 01:17:25;;;;;;;2.37;2.17;;;;;;;19.51;91.47;156376.97;5067506;28;20518;-75
2022/09/07 01:20:12;;;;;;;2.90;2.30;;;;;;;19.49;91.01;156373.03;5067759;28;20551;-74
2022/09/07 01:22:55;;;;;;;5.00;3.17;;;;;;;19.50;91.16;156374.34;5051988;28;20477;-75
2022/09/07 01:25:30;;;;;;;3.17;2.87;;;;;;;19.51;91.64;156376.97;5052451;28;20445;-75
2022/09/07 01:28:10;;;;;;;3.30;2.40;;;;;;;19.48;90.74;156370.44;5067694;28;20879;-75
2022/09/07 01:30:38;;;;;;;2.73;2.50;;;;;;;19.47;89.93;156366.50;5067596;28;20482;-75
2022/09/07 01:33:27;;;;;;;4.57;2.90;;;;;;;19.51;92.88;156378.28;5067098;28;20439;-75
2022/09/07 01:36:00;;;;;;;4.67;2.37;;;;;;;19.51;92.35;156378.28;5050805;28;20486;-75
2022/09/07 01:38:31;;;;;;;4.30;3.00;;;;;;;19.53;91.32;156383.47;5052411;28;20469;-75
2022/09/07 01:41:03;;;;;;;4.90;2.70;;;;;;;19.51;91.35;156376.97;5067640;28;20446;-75
2022/09/07 01:43:36;;;;;;;3.03;2.73;;;;;;;19.49;90.34;156373.03;5067336;28;20457;-75
2022/09/07 01:46:06;;;;;;;3.47;2.60;;;;;;;19.49;91.74;156373.03;5067651;28;20962;-75
2022/09/07 01:48:33;;;;;;;2.93;2.63;;;;;;;19.44;92.74;156361.31;5051724;28;20471;-75
2022/09/07 01:51:03;;;;;;;2.90;2.40;;;;;;;19.43;92.14;156357.41;5065834;28;20439;-75
2022/09/07 01:53:33;;;;;;;4.70;3.40;;;;;;;19.42;92.77;156356.09;5037038;28;20463;-75
2022/09/07 01:56:03;;;;;;;5.00;2.80;;;;;;;19.46;92.06;156365.19;5034212;28;20538;-75
2022/09/07 01:58:35;;;;;;;4.83;2.70;;;;;;;19.46;91.57;156363.94;5050750;28;20455;-75
2022/09/07 02:01:06;;;;;;;5.87;2.83;;;;;;;19.43;92.59;156357.41;5050679;28;20455;-75
2022/09/07 02:03:36;;;;;;;5.20;3.20;;;;;;;19.43;90.17;156357.41;5051521;28;20510;-75
2022/09/07 02:06:07;;;;;;;4.10;2.83;;;;;;;19.46;90.42;156363.94;5052116;28;20493;-75
2022/09/07 02:08:37;;;;;;;4.00;2.80;;;;;;;19.43;91.87;156358.69;5050273;28;20536;-75
2022/09/07 02:11:08;;;;;;;4.00;3.20;;;;;;;19.44;92.93;156361.31;5033901;28;20435;-75
2022/09/07 02:13:39;;;;;;;5.37;2.50;;;;;;;19.43;90.58;156357.41;5049610;28;20485;-75
2022/09/07 02:16:10;;;;;;;4.80;2.73;;;;;;;19.45;93.09;156362.63;5050451;28;20445;-75
2022/09/07 02:18:39;;;;;;;3.10;2.80;;;;;;;19.43;91.59;156358.69;5050324;28;20435;-75
2022/09/07 02:21:08;;;;;;;4.27;3.83;;;;;;;19.42;91.85;156356.09;5051783;28;20489;-74
2022/09/07 02:23:38;;;;;;;2.90;2.60;;;;;;;19.47;93.17;156367.81;5050080;28;20430;-75
2022/09/07 02:26:09;;;;;;;3.60;2.80;;;;;;;19.46;94.55;156363.94;5050272;28;20458;-75
2022/09/07 02:28:38;;;;;;;3.07;2.70;;;;;;;19.47;92.06;156367.81;5051409;28;20485;-75
2022/09/07 02:31:07;;;;;;;4.47;2.70;;;;;;;19.46;94.09;156365.19;5051862;28;20447;-75
2022/09/07 02:33:34;;;;;;;5.13;2.97;;;;;;;19.42;92.54;156354.78;5066604;28;20438;-75
2022/09/07 02:36:03;;;;;;;4.27;2.90;;;;;;;19.42;91.63;156356.09;5066951;28;20450;-75
2022/09/07 02:38:30;;;;;;;5.00;2.87;;;;;;;19.41;93.33;156352.16;5051265;28;20470;-75
2022/09/07 02:40:58;;;;;;;5.07;3.07;;;;;;;19.44;92.20;156361.31;5051522;28;20435;-75
2022/09/07 02:43:26;;;;;;;3.93;2.90;;;;;;;19.42;92.13;156356.09;5029782;28;20443;-75
2022/09/07 02:46:06;;;;;;;4.53;2.83;;;;;;;19.43;93.50;156358.69;5031798;28;20498;-75
2022/09/07 02:48:40;;;;;;;4.40;2.90;;;;;;;19.44;93.02;156361.31;5031234;28;20479;-75
2022/09/07 02:51:15;;;;;;;4.90;3.17;;;;;;;19.48;94.59;156369.13;5047516;28;20860;-75
2022/09/07 02:54:15;;;;;;;5.00;2.80;;;;;;;19.46;95.05;156365.19;5049605;28;20430;-75
2022/09/07 02:56:53;;;;;;;3.80;3.00;;;;;;;19.42;95.57;156356.09;5066350;28;20450;-75
2022/09/07 02:59:39;;;;;;;6.70;3.60;;;;;;;19.41;94.39;156353.47;5066337;28;20552;-75
2022/09/07 03:02:14;;;;;;;5.63;3.60;;;;;;;19.43;94.30;156358.69;5066370;28;20838;-75
2022/09/07 03:04:45;;;;;;;4.00;3.20;;;;;;;19.41;94.40;156353.47;5051307;28;20422;-75
2022/09/07 03:07:15;;;;;;;4.73;3.13;;;;;;;19.43;95.63;156358.69;5051156;28;20411;-75
2022/09/07 03:09:44;;;;;;;3.47;2.83;;;;;;;19.46;96.08;156363.94;5066481;28;20569;-75
2022/09/07 03:12:11;;;;;;;3.77;3.33;;;;;;;19.42;97.74;156356.09;5066101;28;20524;-75
2022/09/07 03:14:40;;;;;;;3.67;2.80;;;;;;;19.39;96.38;156348.28;5066411;28;20848;-75
2022/09/07 03:17:08;;;;;;;6.13;4.03;;;;;;;19.41;96.71;156353.47;5066448;28;20443;-75
2022/09/07 03:19:35;;;;;;;5.93;4.00;;;;;;;19.46;96.83;156365.19;5066488;28;20442;-75
2022/09/07 03:22:02;;;;;;;4.10;3.53;;;;;;;19.49;97.10;156371.72;5051030;28;20446;-75
2022/09/07 03:24:29;;;;;;;5.50;3.40;;;;;;;19.48;98.07;156370.44;5050732;28;20431;-75
2022/09/07 03:26:57;;;;;;;3.83;3.43;;;;;;;19.49;97.93;156371.72;5068304;28;20512;-75
2022/09/07 03:29:24;;;;;;;4.00;3.60;;;;;;;19.49;98.01;156371.72;5069766;28;20525;-74
2022/09/07 03:31:51;;;;;;;4.87;3.57;;;;;;;19.49;99.00;156371.72;5054327;28;20910;-75
2022/09/07 03:34:19;;;;;;;6.33;3.57;;;;;;;19.45;98.59;156362.63;5053942;28;20461;-75
2022/09/07 03:36:45;;;;;;;3.77;3.47;;;;;;;19.42;97.65;156356.09;5054426;28;20501;-75
2022/09/07 03:39:13;;;;;;;3.57;3.27;;;;;;;19.46;97.41;156363.94;5069695;28;20435;-75
2022/09/07 03:41:40;;;;;;;6.53;3.77;;;;;;;19.45;97.36;156362.63;5054506;28;20754;-75
2022/09/07 03:44:08;;;;;;;5.40;3.73;;;;;;;19.38;97.49;156345.66;5053999;28;20485;-75
2022/09/07 03:46:35;;;;;;;4.73;3.43;;;;;;;19.33;97.93;156332.56;5052895;28;20431;-75
2022/09/07 03:49:01;;;;;;;3.60;3.30;;;;;;;19.29;98.30;156320.84;5053647;28;20483;-75
2022/09/07 03:51:30;;;;;;;5.83;3.57;;;;;;;19.25;98.06;156310.41;5052553;28;20443;-75
2022/09/07 03:53:59;;;;;;;4.17;3.30;;;;;;;19.20;98.14;156297.38;5053782;28;20439;-75
2022/09/07 03:56:26;;;;;;;4.00;3.60;;;;;;;19.16;98.83;156286.97;5052757;28;20431;-75
2022/09/07 03:58:54;;;;;;;4.33;3.93;;;;;;;19.12;98.79;156277.84;5052624;28;20516;-75
2022/09/07 04:01:23;;;;;;;3.93;3.43;;;;;;;19.08;98.32;156267.44;5052677;28;20777;-75
2022/09/07 04:03:50;;;;;;;4.23;3.70;;;;;;;19.06;98.75;156262.19;5052223;28;20995;-75
2022/09/07 04:06:18;;;;;;;8.83;3.77;;;;;;;19.05;98.94;156258.28;5052531;28;20803;-75
2022/09/07 04:08:46;;;;;;;3.90;3.50;;;;;;;19.04;100.00;156255.66;5069466;28;20471;-75
2022/09/07 04:11:15;;;;;;;6.13;4.23;;;;;;;19.00;100.00;156246.59;5069244;28;20442;-75
2022/09/07 04:13:42;;;;;;;5.60;3.77;;;;;;;18.98;100.00;156241.38;5068860;28;20569;-75
2022/09/07 04:16:10;;;;;;;4.50;3.63;;;;;;;18.97;100.00;156238.75;5069258;28;20505;-75
2022/09/07 04:18:37;;;;;;;6.53;3.70;;;;;;;18.96;100.00;156236.13;5068807;28;20490;-75
2022/09/07 04:21:04;;;;;;;4.13;3.60;;;;;;;18.97;100.00;156238.75;5053675;28;20847;-75
2022/09/07 04:23:31;;;;;;;5.13;3.97;;;;;;;19.00;100.00;156246.59;5068583;28;20812;-74
2022/09/07 04:25:59;;;;;;;4.80;3.80;;;;;;;18.94;100.00;156230.94;5069168;28;20423;-75
2022/09/07 04:28:26;;;;;;;5.40;3.80;;;;;;;18.91;100.00;156221.78;5053320;28;20439;-75
2022/09/07 04:30:52;;;;;;;5.77;4.37;;;;;;;18.90;100.00;156220.53;5068860;28;20442;-75
2022/09/07 04:33:19;;;;;;;5.57;3.93;;;;;;;18.90;100.00;156220.53;5068555;28;20458;-75
2022/09/07 04:35:46;;;;;;;4.17;3.77;;;;;;;18.94;100.00;156230.94;5053745;28;20487;-75
2022/09/07 04:38:14;;;;;;;6.30;4.47;;;;;;;18.94;100.00;156230.94;5068416;28;20852;-75
2022/09/07 04:40:41;;;;;;;7.93;4.00;;;;;;;18.97;100.00;156237.44;5053162;28;20439;-75
2022/09/07 04:43:11;;;;;;;4.83;4.13;;;;;;;18.99;100.00;156242.66;5051743;28;20802;-76
2022/09/07 04:45:38;;;;;;;4.60;4.17;;;;;;;18.95;100.00;156233.56;5068590;28;20435;-75
2022/09/07 04:48:05;;;;;;;7.47;4.20;;;;;;;18.94;100.00;156229.63;5068364;28;20791;-75
2022/09/07 04:50:33;;;;;;;6.07;4.17;;;;;;;18.87;100.00;156212.72;5054448;28;20885;-75
2022/09/07 04:52:59;;;;;;;5.83;4.20;;;;;;;18.86;100.00;156210.09;5047979;28;20470;-75
2022/09/07 04:55:26;;;;;;;4.70;4.13;;;;;;;18.84;100.00;156204.88;5048349;28;20997;-75
2022/09/07 04:57:53;;;;;;;6.47;4.80;;;;;;;18.83;100.00;156202.25;5056643;28;20455;-75
2022/09/07 05:00:22;;;;;;;4.87;4.20;;;;;;;18.84;100.00;156204.88;5068370;28;20761;-75
2022/09/07 05:02:48;;;;;;;5.87;4.33;;;;;;;18.78;100.00;156189.22;5052670;28;20438;-75
2022/09/07 05:05:15;;;;;;;5.77;4.50;;;;;;;18.77;100.00;156186.66;5068277;28;20496;-75
2022/09/07 05:07:42;;;;;;;6.17;3.90;;;;;;;18.74;100.00;156178.84;5053006;28;20435;-75
2022/09/07 05:10:09;;;;;;;12.83;4.93;;;;;;;18.71;100.00;156171.00;5051121;28;20467;-75
2022/09/07 05:12:36;;;;;;;8.23;5.20;;;;;;;18.66;100.00;156158.00;5067909;28;20466;-76
2022/09/07 05:15:03;;;;;;;7.13;4.80;;;;;;;18.64;100.00;156152.75;5067013;28;20446;-75
2022/09/07 05:17:31;;;;;;;5.43;4.30;;;;;;;18.62;100.00;156147.53;5052568;28;20439;-76
2022/09/07 05:19:58;;;;;;;5.97;5.07;;;;;;;18.69;100.00;156165.81;5067928;28;20442;-76
2022/09/07 05:22:25;;;;;;;9.17;3.93;;;;;;;18.76;100.00;156184.03;5068020;28;20447;-76
2022/09/07 05:24:52;;;;;;;4.80;4.30;;;;;;;18.78;100.00;156190.53;5067344;28;20884;-76
2022/09/07 05:27:18;;;;;;;6.13;4.50;;;;;;;18.79;100.00;156191.84;5068077;28;20450;-76
2022/09/07 05:29:46;;;;;;;5.47;4.27;;;;;;;18.78;100.00;156189.22;5052164;28;20859;-76
2022/09/07 05:32:12;;;;;;;6.43;4.43;;;;;;;18.80;100.00;156194.44;5052333;28;20458;-76
2022/09/07 05:34:41;;;;;;;5.83;4.40;;;;;;;18.82;100.00;156200.94;5050466;28;20453;-76
2022/09/07 05:37:07;;;;;;;4.70;4.10;;;;;;;18.81;100.00;156197.06;5067542;28;20528;-76
2022/09/07 05:39:34;;;;;;;5.43;4.40;;;;;;;18.83;100.00;156202.25;5067471;28;20523;-76
2022/09/07 05:42:01;;;;;;;5.57;5.03;;;;;;;18.88;100.00;156215.28;5067668;28;20477;-76
2022/09/07 05:44:29;;;;;;;10.93;4.90;;;;;;;18.93;100.00;156228.31;5051664;28;20439;-76
2022/09/07 05:46:56;;;;;;;4.73;3.63;;;;;;;18.97;100.00;156238.75;5067391;28;20478;-76
2022/09/07 05:49:22;;;;;;;6.57;3.93;;;;;;;19.02;100.00;156251.78;5050408;28;20474;-76
2022/09/07 05:51:51;;;;;;;5.50;4.90;;;;;;;19.12;100.00;156277.84;5050717;28;20450;-76
2022/09/07 05:54:18;;;;;;;6.43;4.67;;;;;;;19.21;100.00;156301.31;5051564;28;20439;-76
2022/09/07 05:56:45;;;;;;;8.30;4.23;;;;;;;19.40;100.00;156349.59;5050854;28;20435;-76
2022/09/07 05:59:11;;;;;;;5.40;4.20;;;;;;;19.64;100.00;156412.16;5050566;28;20509;-76
2022/09/07 06:01:38;;;;;;;7.60;4.20;;;;;;;19.85;99.59;156465.63;5050498;28;20473;-76
2022/09/07 06:04:05;;;;;;;6.90;4.43;;;;;;;20.05;99.11;156519.06;5051561;28;20426;-76
2022/09/07 06:06:32;;;;;;;7.33;4.30;;;;;;;20.24;97.90;156567.38;5051644;28;20443;-76
2022/09/07 06:09:00;;;;;;;7.50;4.53;;;;;;;20.26;97.20;156572.56;5051650;28;20427;-76
2022/09/07 06:11:27;;;;;;;9.10;4.37;;;;;;;20.34;97.39;156593.44;5067110;28;20473;-76
2022/09/07 06:13:54;;;;;;;7.37;3.70;;;;;;;20.58;96.75;156654.75;5051524;28;20431;-76
2022/09/07 06:16:21;;;;;;;5.00;3.60;;;;;;;20.79;95.83;156708.22;5051656;28;20485;-76
2022/09/07 06:18:49;;;;;;;5.20;3.97;;;;;;;20.98;94.37;156757.81;5067094;28;20542;-77
2022/09/07 06:21:18;;;;;;;5.03;4.10;;;;;;;21.17;92.84;156807.47;5050416;28;20438;-77
2022/09/07 06:23:45;;;;;;;6.10;4.17;;;;;;;21.37;91.79;156859.66;5066723;28;20804;-77
2022/09/07 06:26:15;;;;;;;5.37;3.63;;;;;;;21.63;91.85;156927.53;5050412;28;20465;-76
2022/09/07 06:28:43;;;;;;;6.23;3.80;;;;;;;21.84;89.30;156982.38;5052267;28;20439;-77
2022/09/07 06:31:11;;;;;;;6.10;3.97;;;;;;;22.17;85.12;157066.00;5051493;28;20777;-76
2022/09/07 06:33:40;;;;;;;4.03;3.40;;;;;;;22.36;86.00;157116.97;5066859;28;20443;-76
2022/09/07 06:36:10;;;;;;;4.57;3.50;;;;;;;22.64;83.70;157188.81;5050283;28;20431;-76
2022/09/07 06:38:38;;;;;;;5.90;4.60;;;;;;;22.94;83.21;157265.91;5051361;28;20439;-76
2022/09/07 06:41:07;;;;;;;4.30;3.37;;;;;;;23.29;83.05;157357.41;5066641;28;20497;-76
2022/09/07 06:43:35;;;;;;;5.03;3.50;;;;;;;23.71;80.11;157465.94;5066897;28;20960;-77
2022/09/07 06:46:02;;;;;;;3.60;3.13;;;;;;;23.94;77.47;157524.75;5051639;28;20427;-77
2022/09/07 06:48:29;;;;;;;5.33;3.20;;;;;;;23.79;77.50;157486.88;5049640;28;20803;-77
2022/09/07 06:50:57;;;;;;;5.70;3.00;;;;;;;23.75;77.41;157476.38;5051352;28;20824;-77
2022/09/07 06:53:24;;;;;;;10.90;3.23;;;;;;;23.68;77.71;157458.09;5066605;28;20443;-77
2022/09/07 06:55:51;;;;;;;5.33;3.63;;;;;;;23.68;78.00;157458.09;5066621;28;20856;-77
2022/09/07 06:58:18;;;;;;;4.97;3.20;;;;;;;23.74;78.31;157472.47;5051220;28;20484;-77
2022/09/07 07:00:46;;;;;;;9.20;2.93;;;;;;;23.72;77.53;157468.56;5053449;28;20949;-77
2022/09/07 07:03:13;;;;;;;7.83;3.40;;;;;;;23.70;77.35;157463.31;5055301;28;20427;-77
2022/09/07 07:05:40;;;;;;;3.83;3.30;;;;;;;23.49;77.51;157408.41;5070293;28;20439;-77
2022/09/07 07:08:06;;;;;;;4.83;3.40;;;;;;;23.55;78.85;157425.41;5055431;28;20435;-76
2022/09/07 07:10:37;;;;;;;4.43;3.00;;;;;;;23.89;78.40;157513.00;5070146;28;20466;-77
2022/09/07 07:13:04;;;;;;;5.57;3.27;;;;;;;24.29;76.36;157616.34;5054853;28;20506;-77
2022/09/07 07:15:31;;;;;;;3.83;3.20;;;;;;;24.86;74.02;157764.19;5054625;28;20431;-77
2022/09/07 07:17:59;;;;;;;3.53;3.23;;;;;;;25.30;71.96;157878.06;5070383;28;20450;-77
2022/09/07 07:20:26;;;;;;;5.43;2.80;;;;;;;25.62;71.42;157961.88;5054662;28;20427;-77
2022/09/07 07:22:53;;;;;;;5.40;3.57;;;;;;;25.99;69.52;158057.44;5069952;28;20470;-77
2022/09/07 07:25:20;;;;;;;4.83;3.20;;;;;;;26.37;68.48;158155.72;5069608;28;20427;-77
2022/09/07 07:27:47;;;;;;;4.90;3.27;;;;;;;26.68;66.97;158235.59;5070285;28;20447;-77
2022/09/07 07:30:14;;;;;;;5.13;3.30;;;;;;;26.79;66.37;158264.47;5054350;28;20520;-77
2022/09/07 07:32:41;;;;;;;4.20;2.93;;;;;;;26.97;64.87;158311.63;5070114;28;20446;-77
2022/09/07 07:35:10;;;;;;;7.83;3.73;;;;;;;27.03;66.82;158327.34;5069525;28;20438;-77
2022/09/07 07:37:36;;;;;;;4.10;2.97;;;;;;;27.04;66.08;158329.94;5054655;28;20488;-77
2022/09/07 07:40:04;;;;;;;4.30;3.57;;;;;;;27.33;64.90;158405.94;5069759;28;20905;-77
2022/09/07 07:42:31;;;;;;;3.37;2.80;;;;;;;27.39;63.92;158421.69;5054598;28;20445;-77
2022/09/07 07:44:58;;;;;;;5.90;2.90;;;;;;;27.35;64.97;158411.16;5069437;28;20430;-77
2022/09/07 07:47:25;;;;;;;5.30;3.30;;;;;;;27.42;63.46;158429.59;5068767;28;20443;-77
2022/09/07 07:49:52;;;;;;;3.00;2.70;;;;;;;27.47;63.26;158442.69;5053740;28;20483;-77
2022/09/07 07:52:21;;;;;;;6.17;3.57;;;;;;;27.46;62.37;158440.06;5053057;28;20451;-77
2022/09/07 07:54:47;;;;;;;6.83;3.30;;;;;;;27.78;62.57;158522.63;5053810;28;20423;-77
2022/09/07 07:57:15;;;;;;;4.00;3.60;;;;;;;27.97;62.11;158571.13;5052952;28;20493;-77
2022/09/07 07:59:42;;;;;;;10.03;3.30;;;;;;;28.23;62.03;158640.66;5054379;28;20467;-77
2022/09/07 08:02:14;;;;;;;5.20;3.40;;;;;;;28.44;60.23;158694.41;5054147;28;20996;-77
2022/09/07 08:04:41;;;;;;;6.73;3.43;;;;;;;28.46;60.81;158699.69;5052182;28;20447;-77
2022/09/07 08:07:10;;;;;;;6.07;3.30;;;;;;;28.41;61.35;158685.25;5053864;28;20439;-77
2022/09/07 08:09:39;;;;;;;5.77;3.03;;;;;;;28.62;59.72;158741.66;5053757;28;20833;-77
2022/09/07 08:12:06;;;;;;;4.37;3.40;;;;;;;28.58;59.19;158729.81;5053394;28;20435;-77
2022/09/07 08:14:35;;;;;;;5.00;2.80;;;;;;;28.75;59.58;158774.50;5035656;28;20431;-77
2022/09/07 08:17:02;;;;;;;4.90;3.40;;;;;;;28.86;58.04;158803.31;5069241;28;20795;-77
2022/09/07 08:19:28;;;;;;;5.33;2.87;;;;;;;28.93;59.15;158823.03;5053802;28;20443;-77
2022/09/07 08:21:55;;;;;;;5.07;2.97;;;;;;;29.15;59.15;158878.13;5053581;28;20450;-77
2022/09/07 08:24:22;;;;;;;4.30;2.97;;;;;;;29.09;58.99;158863.69;5053378;28;20846;-77
2022/09/07 08:26:50;;;;;;;5.00;3.10;;;;;;;28.96;57.09;158830.84;5068832;28;20529;-77
2022/09/07 08:29:16;;;;;;;4.07;3.10;;;;;;;28.95;57.67;158826.94;5068968;28;20470;-77
2022/09/07 08:31:43;;;;;;;5.50;3.17;;;;;;;28.93;59.14;158823.03;5068752;28;20871;-77
2022/09/07 08:34:10;;;;;;;5.27;3.37;;;;;;;28.96;59.28;158829.56;5051992;28;20419;-77
2022/09/07 08:36:37;;;;;;;6.30;3.17;;;;;;;28.94;57.12;158825.59;5068605;28;20530;-77
2022/09/07 08:39:04;;;;;;;4.57;2.90;;;;;;;29.18;57.09;158887.25;5053386;28;20525;-77
2022/09/07 08:42:08;;;;;;;10.00;3.33;;;;;;;29.05;56.13;158851.84;5053200;28;20486;-77
2022/09/07 08:44:39;;;;;;;5.50;3.23;;;;;;;28.96;61.87;158830.84;5051601;28;20449;-77
2022/09/07 08:47:11;;;;;;;7.43;3.93;;;;;;;29.02;58.49;158844.00;5051274;28;20497;-77
2022/09/07 08:49:43;;;;;;;3.40;3.10;;;;;;;28.91;57.89;158817.72;5031858;28;20467;-77
2022/09/07 08:52:12;;;;;;;4.07;3.13;;;;;;;28.93;57.53;158823.03;5048463;28;20440;-77
2022/09/07 08:54:43;;;;;;;4.97;3.53;;;;;;;29.06;58.15;158854.47;5031489;28;20440;-77
2022/09/07 08:57:12;;;;;;;6.80;3.37;;;;;;;29.08;56.81;158861.03;5052219;28;20443;-77
2022/09/07 08:59:43;;;;;;;4.30;2.83;;;;;;;29.24;55.77;158901.75;5051560;28;20439;-77
2022/09/07 09:02:13;;;;;;;4.60;3.33;;;;;;;29.14;56.78;158875.47;5068081;28;20489;-77
2022/09/07 09:04:41;;;;;;;6.37;3.33;;;;;;;28.77;56.74;158781.03;5067849;28;20474;-77
2022/09/07 09:07:15;;;;;;;4.23;3.37;;;;;;;28.55;58.64;158723.28;5052785;28;20439;-77
2022/09/07 09:10:06;;;;;;;5.90;3.47;;;;;;;28.53;57.59;158718.03;5068206;28;20505;-77
2022/09/07 09:12:41;;;;;;;5.70;3.40;;;;;;;28.47;59.68;158700.97;5067957;28;20447;-77
2022/09/07 09:15:16;;;;;;;7.47;4.10;;;;;;;28.41;63.42;158686.53;5052379;28;20429;-77
2022/09/07 09:17:47;;;;;;;4.10;3.20;;;;;;;28.36;59.95;158674.75;5067778;28;20852;-77
2022/09/07 09:20:22;;;;;;;3.87;3.53;;;;;;;28.39;58.14;158681.31;5051356;28;20431;-77
2022/09/07 09:22:50;;;;;;;7.20;3.80;;;;;;;28.61;57.51;158739.03;5052643;28;20447;-77
2022/09/07 09:25:20;;;;;;;5.77;3.07;;;;;;;28.61;56.25;158739.03;5052208;28;20492;-77
2022/09/07 09:27:49;;;;;;;7.53;3.60;;;;;;;28.53;57.98;158718.03;5052729;28;20894;-77
2022/09/07 09:30:18;;;;;;;5.77;3.93;;;;;;;28.33;57.03;158666.88;5052206;28;21004;-77
2022/09/07 09:32:46;;;;;;;5.70;3.10;;;;;;;28.11;56.96;158607.91;5067726;28;20454;-77
2022/09/07 09:35:16;;;;;;;6.07;3.50;;;;;;;27.90;61.66;158552.78;5067407;28;20522;-77
2022/09/07 09:37:44;;;;;;;4.97;3.80;;;;;;;27.93;58.31;158560.66;5051028;28;20541;-77
2022/09/07 09:40:25;;;;;;;6.70;3.73;;;;;;;27.88;61.15;158548.81;5052165;28;20538;-77
2022/09/07 09:43:01;;;;;;;5.67;3.63;;;;;;;27.90;60.26;158554.13;5067617;28;20453;-77
2022/09/07 09:45:29;;;;;;;4.27;3.37;;;;;;;27.65;59.98;158489.88;5052167;28;20422;-77
2022/09/07 09:47:57;;;;;;;5.47;3.30;;;;;;;27.71;59.82;158505.59;5066818;28;20553;-77
2022/09/07 09:50:25;;;;;;;3.10;2.80;;;;;;;27.73;58.03;158510.84;5051886;28;20459;-77
2022/09/07 09:52:54;;;;;;;5.40;3.17;;;;;;;27.76;57.69;158518.72;5067115;28;20520;-77
2022/09/07 09:55:24;;;;;;;4.40;3.10;;;;;;;27.68;58.00;158497.75;5066935;28;20441;-77
2022/09/07 09:57:52;;;;;;;4.10;3.03;;;;;;;27.70;57.64;158502.97;5050507;28;20516;-77
2022/09/07 10:00:23;;;;;;;6.57;3.60;;;;;;;27.70;58.20;158502.97;5052058;28;20807;-76
2022/09/07 10:03:01;;;;;;;4.07;3.50;;;;;;;27.47;58.82;158441.38;5067485;28;20508;-77
2022/09/07 10:05:30;;;;;;;4.67;3.53;;;;;;;27.54;58.36;158461.03;5030565;28;20485;-77
2022/09/07 10:07:57;;;;;;;6.23;3.20;;;;;;;27.61;59.04;158479.41;5047296;28;20444;-77
2022/09/07 10:10:26;;;;;;;4.70;3.50;;;;;;;27.66;57.40;158492.50;5030522;28;20482;-77
2022/09/07 10:12:54;;;;;;;4.60;3.07;;;;;;;27.94;56.19;158564.56;5046796;28;20448;-77
2022/09/07 10:15:33;;;;;;;6.30;3.23;;;;;;;27.84;56.79;158537.03;5013701;28;20577;-77
2022/09/07 10:18:00;;;;;;;3.43;3.13;;;;;;;27.64;59.99;158487.22;5047101;28;20686;-77
2022/09/07 10:20:33;;;;;;;3.60;3.30;;;;;;;27.68;55.83;158497.75;5035082;28;20438;-77
2022/09/07 10:23:01;;;;;;;5.90;3.80;;;;;;;27.48;62.50;158445.28;5067198;28;20447;-77
2022/09/07 10:25:31;;;;;;;6.63;3.60;;;;;;;27.41;59.40;158426.94;5051280;28;20415;-77
2022/09/07 10:28:16;;;;;;;6.57;4.20;;;;;;;27.36;59.31;158413.81;5051555;28;20497;-77
2022/09/07 10:30:58;;;;;;;3.77;3.13;;;;;;;27.54;55.46;158461.03;5051505;28;20540;-77
2022/09/07 10:33:28;;;;;;;5.83;3.73;;;;;;;27.62;56.16;158480.69;5066995;28;20600;-77
2022/09/07 10:36:00;;;;;;;4.60;3.10;;;;;;;27.69;59.42;158500.31;5069290;28;20431;-77
2022/09/07 10:38:30;;;;;;;6.10;3.20;;;;;;;27.80;55.36;158527.84;5070678;28;20469;-77
2022/09/07 10:41:02;;;;;;;3.50;2.70;;;;;;;28.04;55.12;158589.56;5070866;28;20431;-77
2022/09/07 10:43:40;;;;;;;5.23;3.50;;;;;;;27.87;56.75;158544.91;5070838;28;20443;-77
2022/09/07 10:46:26;;;;;;;7.00;3.30;;;;;;;27.59;57.67;158472.81;5054974;28;20425;-77
2022/09/07 10:49:02;;;;;;;5.33;3.43;;;;;;;27.52;57.65;158455.78;5055072;28;20473;-77
2022/09/07 10:51:32;;;;;;;6.33;3.70;;;;;;;27.27;58.84;158390.19;5053977;28;20532;-77
2022/09/07 10:54:02;;;;;;;4.50;3.20;;;;;;;27.14;64.17;158357.44;5070569;28;20929;-77
2022/09/07 10:56:32;;;;;;;4.80;3.90;;;;;;;27.13;58.69;158353.53;5034149;28;20432;-77
2022/09/07 10:59:05;;;;;;;6.93;3.70;;;;;;;26.85;58.86;158280.16;5034002;28;20424;-77
2022/09/07 11:01:41;;;;;;;6.13;4.80;;;;;;;26.51;60.29;158193.66;5033983;28;20423;-77
2022/09/07 11:04:26;;;;;;;4.70;3.57;;;;;;;26.37;61.99;158156.97;5033744;28;20435;-77
2022/09/07 11:06:59;;;;;;;5.07;3.93;;;;;;;26.15;62.37;158098.06;5035226;28;20446;-77
2022/09/07 11:09:39;;;;;;;7.97;3.83;;;;;;;25.91;63.10;158036.50;5035121;28;20478;-77
2022/09/07 11:12:09;;;;;;;4.73;3.70;;;;;;;26.00;64.73;158060.03;5045121;28;20474;-77
2022/09/07 11:14:39;;;;;;;5.37;4.43;;;;;;;25.97;62.49;158053.47;5070343;28;20438;-77
2022/09/07 11:17:14;;;;;;;4.13;3.77;;;;;;;25.82;64.30;158014.22;5054954;28;20438;-77
2022/09/07 11:19:47;;;;;;;4.77;4.07;;;;;;;25.74;64.21;157991.97;5070277;28;20528;-77
2022/09/07 11:22:26;;;;;;;4.20;3.80;;;;;;;25.56;65.68;157946.16;5054678;28;20438;-77
2022/09/07 11:24:57;;;;;;;5.50;3.77;;;;;;;25.37;65.79;157896.38;5054522;28;20423;-77
2022/09/07 11:27:27;;;;;;;7.37;4.40;;;;;;;25.26;66.32;157868.88;5054721;28;20446;-76
2022/09/07 11:29:59;;;;;;;5.37;3.90;;;;;;;25.26;67.01;157868.88;5054828;28;20929;-77
2022/09/07 11:32:29;;;;;;;7.60;4.20;;;;;;;25.32;67.36;157883.28;5053065;28;20482;-77
2022/09/07 11:34:58;;;;;;;4.63;4.20;;;;;;;25.29;66.79;157876.75;5069649;28;20515;-77